Top countries

USA - 10990
Canada - 1986
United Kingdom - 1923
Australia - 1217
Poland - 1115
Brazil - 1097
Germany - 1090
Iran - 1053
Russia - 979
Greece - 934
France - 921
Mexico - 918
Some observations

Total members: 52776
Guys: 43700
Girls: 9035

Positions

Admin
Staff
Moderator
Elite
Contributor
Search







Pages: 1 ... 742 743 744 [745] 746 747 748 ... 1056
Username Sex Age Location Registered Last seen online Posts Points
37201 Tangela Marshall Islands 08.06.2013 never 0 0
37202 Philomena Lebanon 08.06.2013 never 0 0
37203 Marissa Yemen 08.06.2013 never 0 0
37204 Deadcenter Ukraine 08.06.2013 407d ago 0 0
37205 Ramiro Zambia 08.06.2013 never 0 0
37206 veal Poland 08.06.2013 411d ago 0 0
37207 Le3o 17 Paraguay 08.06.2013 411d ago 0 0
37208 Nocturne Iran 08.06.2013 never 0 0
37209 Nocturne-km Iran 08.06.2013 8d ago 0 0
37210 DemmelitionMan 08.06.2013 367d ago 0 0
37211 Rosalind Kiribati 09.06.2013 never 0 0
37212 bagby Latvia 09.06.2013 142d ago 0 0
37213 AliMohammed 09.06.2013 72d ago 0 0
37214 bigdr82 Australia 08.06.2013 never 0 0
37215 UncleProg 23 Poland 08.06.2013 12d ago 0 0
37216 Pavel Czech Republic 08.06.2013 404d ago 0 0
37217 romeosingal USA 08.06.2013 411d ago 0 0
37218 Maybell Oman 08.06.2013 never 0 0
37219 LordInfinity Argentina 08.06.2013 never 0 0
37220 deepgrowl88 37 Norway 09.06.2013 410d ago 0 0
37221 tempoklad United Kingdom 08.06.2013 17d ago 0 0
37222 siki Serbia 09.06.2013 397d ago 0 0
37223 Leigh Latvia 09.06.2013 never 0 0
37224 hieidemon Argentina 08.06.2013 294d ago 0 0
37225 Kenton Brunei 08.06.2013 never 0 0
37226 DavideIsola 09.06.2013 411d ago 0 0
37227 kyyvits Estonia 09.06.2013 411d ago 0 0
37228 gchirinoegui 24 Venezuela 10.06.2013 27h ago 0 0
37229 engenas Lithuania 09.06.2013 87d ago 0 0
37230 RikardIncarnit Sweden 09.06.2013 410d ago 0 0
37231 ego Italy 09.06.2013 never 0 0
37232 Gchirino Venezuela 10.06.2013 never 0 0
37233 Jenna Korea, South 10.06.2013 never 0 0
37234 grooweN Sweden 09.06.2013 409d ago 0 0
37235 onslaught United Kingdom 10.06.2013 401d ago 0 8
37236 Uta Greece 09.06.2013 never 0 0
37237 temptation 22 Poland 10.06.2013 91d ago 0 0
37238 Mkuusi Finland 09.06.2013 410d ago 0 0
37239 carlos sebastian Puerto Rico 09.06.2013 never 0 0
37240 max101 Ireland 09.06.2013 404d ago 0 0
37241 Joao.Martins 25 Portugal 09.06.2013 410d ago 0 0
37242 juri1012 Germany 09.06.2013 21d ago 0 0
37243 Shanna Somalia 09.06.2013 never 0 0
37244 Dafa01 Sweden 09.06.2013 144d ago 0 0
37245 RakunG Poland 09.06.2013 6d ago 0 0
37246 mordorobin Belgium 09.06.2013 410d ago 0 0
37247 Micah Poland 09.06.2013 never 0 0
37248 Lenora Antigua and Barbuda 10.06.2013 never 0 0
37249 Alberta Guinea-Bissau 10.06.2013 never 0 0
37250 blassan Sweden 10.06.2013 410d ago 0 0
Pages: 1 ... 742 743 744 [745] 746 747 748 ... 1056